Time;durP1;ratioP1;P1;durP2;ratioP2;P2;SDS_P1;SDS_P2;PMS_P1;PMS_P2;Temp;Humidity;BMP_temperature;BMP_pressure;BME280_temperature;BME280_humidity;BME280_pressure;Samples;Min_cycle;Max_cycle;Signal;HPM_P1;HPM_P2
2022/09/02 00:00:43;;;;;;;2.78;0.52;;;16.30;69.10;;;;;;5042430;28;20037;-35
2022/09/02 00:03:09;;;;;;;1.00;0.30;;;16.30;69.40;;;;;;5038200;28;20498;-35
2022/09/02 00:05:34;;;;;;;1.10;0.30;;;16.20;69.40;;;;;;5042204;28;20094;-36
2022/09/02 00:08:00;;;;;;;0.95;0.35;;;16.20;69.90;;;;;;5035613;28;20041;-35
2022/09/02 00:10:26;;;;;;;0.80;0.30;;;16.20;70.10;;;;;;5042336;28;20402;-36
2022/09/02 00:12:52;;;;;;;1.02;0.30;;;16.20;69.90;;;;;;5035908;28;20037;-36
2022/09/02 00:15:18;;;;;;;3.08;0.40;;;16.20;70.10;;;;;;5045551;28;20482;-36
2022/09/02 00:17:43;;;;;;;2.15;0.32;;;16.10;70.20;;;;;;5043042;28;20045;-36
2022/09/02 00:20:09;;;;;;;1.85;0.50;;;16.10;71.30;;;;;;5035224;28;20042;-36
2022/09/02 00:22:35;;;;;;;0.70;0.30;;;16.10;70.60;;;;;;5047072;28;20037;-36
2022/09/02 00:25:00;;;;;;;0.65;0.20;;;16.10;70.80;;;;;;5040942;28;20136;-36
2022/09/02 00:27:26;;;;;;;2.10;0.20;;;16.10;70.90;;;;;;5039518;28;20052;-36
2022/09/02 00:29:52;;;;;;;0.93;0.50;;;16.00;71.10;;;;;;5041618;28;20037;-36
2022/09/02 00:32:18;;;;;;;1.10;0.30;;;16.00;71.30;;;;;;5042698;28;20080;-36
2022/09/02 00:34:44;;;;;;;0.40;0.40;;;16.00;71.60;;;;;;5035570;28;20046;-36
2022/09/02 00:37:10;;;;;;;0.88;0.30;;;16.00;71.60;;;;;;5038795;28;20048;-36
2022/09/02 00:39:35;;;;;;;0.90;0.40;;;16.00;71.60;;;;;;5042006;28;20048;-36
2022/09/02 00:42:02;;;;;;;0.77;0.30;;;16.00;72.00;;;;;;5040744;28;20474;-37
2022/09/02 00:44:28;;;;;;;1.55;0.35;;;15.90;72.20;;;;;;5039024;28;20479;-37
2022/09/02 00:46:54;;;;;;;2.72;0.28;;;15.90;72.40;;;;;;5038193;28;20088;-36
2022/09/02 00:49:26;;;;;;;0.50;0.28;;;15.90;72.40;;;;;;5035384;28;20528;-37
2022/09/02 00:52:28;;;;;;;0.47;0.40;;;15.90;72.70;;;;;;5046823;28;20036;-36
2022/09/02 00:55:05;;;;;;;0.50;0.20;;;15.80;73.50;;;;;;5034941;28;20044;-36
2022/09/02 00:57:39;;;;;;;1.02;0.35;;;15.80;73.30;;;;;;5039270;28;20068;-37
2022/09/02 01:00:08;;;;;;;0.43;0.20;;;15.80;73.70;;;;;;5034778;28;20041;-36
2022/09/02 01:02:36;;;;;;;1.20;0.30;;;15.70;73.70;;;;;;5035587;28;20144;-36
2022/09/02 01:05:04;;;;;;;0.93;0.30;;;15.70;73.80;;;;;;5039673;28;20041;-36
2022/09/02 01:07:33;;;;;;;1.40;0.30;;;15.70;74.20;;;;;;5042236;28;20046;-36
2022/09/02 01:10:00;;;;;;;1.23;0.30;;;15.60;74.40;;;;;;5039054;28;20167;-35
2022/09/02 01:12:29;;;;;;;1.23;0.40;;;15.60;74.40;;;;;;5036023;28;20037;-35
2022/09/02 01:14:56;;;;;;;1.40;0.40;;;15.60;74.90;;;;;;5043532;28;20090;-37
2022/09/02 01:17:24;;;;;;;0.50;0.28;;;15.60;75.00;;;;;;5035004;28;20176;-35
2022/09/02 01:20:00;;;;;;;0.98;0.22;;;15.60;75.20;;;;;;5038562;28;20045;-36
2022/09/02 01:22:31;;;;;;;2.08;0.28;;;15.50;75.40;;;;;;5048210;28;20045;-36
2022/09/02 01:25:03;;;;;;;2.95;0.30;;;15.50;75.90;;;;;;5047530;28;20562;-35
2022/09/02 01:27:29;;;;;;;;;;;15.50;76.30;;;;;;5037355;28;20043;-36
2022/09/02 01:29:58;;;;;;;3.03;0.30;;;15.50;77.40;;;;;;5045439;28;20006;-35
2022/09/02 01:32:26;;;;;;;1.73;0.30;;;15.40;76.00;;;;;;5047780;28;20521;-35
2022/09/02 01:34:52;;;;;;;0.47;0.30;;;15.40;76.40;;;;;;5039819;28;20049;-36
2022/09/02 01:37:19;;;;;;;0.38;0.20;;;15.40;76.50;;;;;;5040985;28;20119;-36
2022/09/02 01:39:45;;;;;;;2.67;0.30;;;15.40;76.80;;;;;;5041505;28;20413;-36
2022/09/02 01:42:11;;;;;;;4.03;0.50;;;15.40;77.30;;;;;;5049872;28;20502;-34
2022/09/02 01:44:42;;;;;;;2.35;0.30;;;15.40;77.30;;;;;;5046453;28;20041;-35
2022/09/02 01:47:16;;;;;;;7.43;0.50;;;15.30;77.70;;;;;;5040950;28;20678;-35
2022/09/02 01:49:42;;;;;;;2.13;0.30;;;15.30;78.00;;;;;;5043442;28;20033;-35
2022/09/02 01:52:08;;;;;;;1.05;0.50;;;15.20;78.10;;;;;;5040671;28;20037;-35
2022/09/02 01:54:34;;;;;;;1.13;0.30;;;15.20;78.20;;;;;;5044969;28;20072;-35
2022/09/02 01:56:59;;;;;;;2.05;0.68;;;15.20;78.60;;;;;;5046127;28;20037;-36
2022/09/02 01:59:25;;;;;;;2.10;0.40;;;15.20;78.80;;;;;;5038732;28;20048;-36
2022/09/02 02:01:51;;;;;;;1.10;0.30;;;15.10;79.20;;;;;;5041197;28;20044;-36
2022/09/02 02:04:17;;;;;;;1.25;0.32;;;15.10;79.40;;;;;;5040082;28;20033;-36
2022/09/02 02:06:45;;;;;;;2.42;0.40;;;15.10;79.40;;;;;;5044558;28;20560;-36
2022/09/02 02:09:11;;;;;;;0.45;0.20;;;15.00;79.90;;;;;;5038672;28;20041;-36
2022/09/02 02:11:37;;;;;;;0.57;0.25;;;15.00;80.00;;;;;;5047026;28;20056;-34
2022/09/02 02:14:04;;;;;;;1.17;0.30;;;15.00;80.20;;;;;;5040304;28;20128;-35
2022/09/02 02:16:30;;;;;;;0.98;0.28;;;15.00;80.30;;;;;;5042736;28;20391;-35
2022/09/02 02:18:56;;;;;;;1.83;0.20;;;15.00;80.70;;;;;;5037668;28;20042;-35
2022/09/02 02:21:23;;;;;;;1.77;0.30;;;14.90;80.60;;;;;;5042061;28;20730;-35
2022/09/02 02:23:48;;;;;;;3.03;0.40;;;14.90;80.60;;;;;;5042161;28;20045;-35
2022/09/02 02:26:14;;;;;;;1.00;0.40;;;14.90;80.70;;;;;;5046417;28;20474;-37
2022/09/02 02:28:40;;;;;;;0.93;0.30;;;14.90;80.70;;;;;;5037478;28;20569;-36
2022/09/02 02:31:06;;;;;;;0.95;0.30;;;14.90;81.00;;;;;;5040460;28;20037;-35
2022/09/02 02:33:34;;;;;;;0.75;0.30;;;14.90;81.30;;;;;;5038545;28;20045;-35
2022/09/02 02:36:03;;;;;;;1.85;0.40;;;14.80;81.30;;;;;;5042018;28;20048;-35
2022/09/02 02:38:29;;;;;;;0.75;0.30;;;14.80;81.60;;;;;;5042772;28;20112;-35
2022/09/02 02:40:56;;;;;;;0.52;0.25;;;14.80;81.70;;;;;;5046802;28;20497;-35
2022/09/02 02:43:23;;;;;;;1.13;0.40;;;14.80;81.90;;;;;;5037917;28;20116;-35
2022/09/02 02:45:49;;;;;;;1.05;0.30;;;14.80;82.10;;;;;;5040070;28;20067;-35
2022/09/02 02:48:15;;;;;;;1.35;0.38;;;14.80;82.20;;;;;;5044842;28;20041;-35
2022/09/02 02:50:41;;;;;;;0.63;0.30;;;14.80;82.20;;;;;;5045055;28;20418;-35
2022/09/02 02:53:07;;;;;;;1.70;0.30;;;14.80;82.40;;;;;;5046113;28;20053;-36
2022/09/02 02:55:34;;;;;;;0.73;0.20;;;14.80;82.70;;;;;;5037577;28;20053;-35
2022/09/02 02:58:00;;;;;;;2.05;0.40;;;14.70;82.50;;;;;;5035301;28;20064;-36
2022/09/02 03:00:28;;;;;;;1.92;0.50;;;14.70;82.90;;;;;;5040507;28;20132;-35
2022/09/02 03:03:07;;;;;;;1.30;0.35;;;14.70;83.30;;;;;;5038616;28;20033;-35
2022/09/02 03:05:36;;;;;;;0.90;0.30;;;14.70;83.80;;;;;;5041393;28;20077;-38
2022/09/02 03:08:03;;;;;;;1.10;0.40;;;14.60;83.40;;;;;;5043781;28;20041;-36
2022/09/02 03:10:31;;;;;;;1.83;0.38;;;14.60;83.60;;;;;;5043891;28;20040;-35
2022/09/02 03:12:58;;;;;;;0.55;0.30;;;14.60;83.90;;;;;;5039643;28;20039;-37
2022/09/02 03:15:24;;;;;;;0.45;0.30;;;14.60;84.10;;;;;;5033709;28;20033;-34
2022/09/02 03:17:50;;;;;;;0.60;0.30;;;14.60;84.30;;;;;;5042779;28;20041;-37
2022/09/02 03:20:17;;;;;;;1.67;0.32;;;14.60;84.30;;;;;;5042152;28;20112;-35
2022/09/02 03:22:46;;;;;;;3.30;0.60;;;14.60;84.40;;;;;;5037025;28;20455;-35
2022/09/02 03:25:15;;;;;;;0.60;0.30;;;14.50;84.90;;;;;;5039540;28;20056;-35
2022/09/02 03:27:44;;;;;;;1.08;0.35;;;14.50;85.20;;;;;;5031035;28;20073;-35
2022/09/02 03:30:13;;;;;;;0.95;0.35;;;14.50;85.20;;;;;;5036590;28;20049;-36
2022/09/02 03:32:39;;;;;;;2.67;0.32;;;14.50;85.00;;;;;;5040533;28;20120;-35
2022/09/02 03:35:07;;;;;;;0.73;0.40;;;14.50;85.50;;;;;;5041601;28;20152;-35
2022/09/02 03:37:34;;;;;;;2.63;0.40;;;14.50;85.60;;;;;;5043522;28;20033;-36
2022/09/02 03:40:09;;;;;;;1.35;0.38;;;14.50;85.60;;;;;;5044397;28;20063;-35
2022/09/02 03:42:36;;;;;;;1.88;0.38;;;14.50;85.90;;;;;;5046094;28;20037;-35
2022/09/02 03:45:03;;;;;;;1.52;0.40;;;14.50;85.70;;;;;;5039431;28;20059;-34
2022/09/02 03:47:29;;;;;;;1.60;0.50;;;14.50;85.60;;;;;;5041572;28;20120;-34
2022/09/02 03:49:56;;;;;;;1.67;0.35;;;14.50;85.70;;;;;;5042487;28;20047;-35
2022/09/02 03:52:22;;;;;;;3.03;0.50;;;14.50;86.00;;;;;;5038236;28;20044;-35
2022/09/02 03:54:48;;;;;;;2.33;0.38;;;14.50;85.70;;;;;;5041339;28;20055;-35
2022/09/02 03:57:13;;;;;;;2.90;0.40;;;14.50;86.00;;;;;;5042938;28;20398;-35
2022/09/02 03:59:39;;;;;;;1.30;0.47;;;14.40;86.40;;;;;;5037202;28;20120;-36
2022/09/02 04:02:05;;;;;;;1.88;0.40;;;14.40;86.40;;;;;;5038091;28;20640;-35
2022/09/02 04:04:31;;;;;;;1.45;0.52;;;14.40;86.40;;;;;;5043285;28;20041;-35
2022/09/02 04:06:57;;;;;;;1.40;0.50;;;14.40;86.60;;;;;;5038967;28;20395;-35
2022/09/02 04:09:23;;;;;;;0.73;0.47;;;14.40;86.90;;;;;;5043078;28;20510;-34
2022/09/02 04:11:49;;;;;;;1.65;0.40;;;14.40;86.80;;;;;;5039301;28;20041;-35
2022/09/02 04:14:15;;;;;;;2.33;0.50;;;14.40;87.10;;;;;;5044113;28;20095;-35
2022/09/02 04:16:41;;;;;;;1.83;0.40;;;14.30;87.20;;;;;;5037200;28;20102;-36
2022/09/02 04:19:08;;;;;;;0.68;0.40;;;14.30;87.20;;;;;;5037851;28;20114;-35
2022/09/02 04:21:36;;;;;;;1.38;0.50;;;14.30;87.30;;;;;;5042959;28;20056;-35
2022/09/02 04:24:03;;;;;;;2.90;0.52;;;14.30;87.60;;;;;;5034550;28;20135;-35
2022/09/02 04:26:28;;;;;;;0.70;0.30;;;14.30;87.80;;;;;;5037657;28;20041;-35
2022/09/02 04:28:54;;;;;;;2.83;0.40;;;14.20;87.70;;;;;;5036894;28;20509;-36
2022/09/02 04:31:24;;;;;;;4.15;0.50;;;14.30;88.00;;;;;;5045034;28;20106;-35
2022/09/02 04:33:50;;;;;;;1.13;0.50;;;14.20;88.10;;;;;;5035777;28;20406;-35
2022/09/02 04:36:18;;;;;;;1.13;0.60;;;14.20;88.30;;;;;;5042024;28;20033;-36
2022/09/02 04:38:44;;;;;;;3.88;0.40;;;14.20;88.40;;;;;;5036584;28;20188;-35
2022/09/02 04:41:13;;;;;;;1.40;0.68;;;14.20;88.50;;;;;;5036302;28;20037;-35
2022/09/02 04:43:39;;;;;;;3.47;0.55;;;14.20;88.80;;;;;;5034653;28;20046;-36
2022/09/02 04:46:07;;;;;;;3.65;0.50;;;14.10;88.70;;;;;;5036630;28;20041;-34
2022/09/02 04:48:35;;;;;;;1.38;0.40;;;14.10;89.10;;;;;;5034741;28;20049;-35
2022/09/02 04:51:22;;;;;;;1.25;0.40;;;14.10;89.00;;;;;;5035546;28;20050;-35
2022/09/02 04:53:50;;;;;;;1.90;0.60;;;14.10;89.50;;;;;;5038062;28;20045;-38
2022/09/02 04:56:20;;;;;;;1.50;0.77;;;14.10;89.30;;;;;;5037688;28;20483;-35
2022/09/02 04:58:46;;;;;;;4.55;0.50;;;14.10;89.40;;;;;;5039651;28;20049;-35
2022/09/02 05:01:19;;;;;;;1.52;0.50;;;14.10;89.60;;;;;;5036975;28;20072;-35
2022/09/02 05:03:46;;;;;;;1.35;0.60;;;14.10;89.70;;;;;;5040634;28;20491;-35
2022/09/02 05:06:16;;;;;;;1.27;0.50;;;14.00;89.80;;;;;;5030720;28;20038;-35
2022/09/02 05:08:43;;;;;;;1.30;0.60;;;14.00;89.80;;;;;;5031364;28;20041;-35
2022/09/02 05:11:17;;;;;;;1.55;0.60;;;14.00;90.00;;;;;;5045388;28;20041;-35
2022/09/02 05:13:43;;;;;;;1.88;0.60;;;14.00;90.00;;;;;;5038671;28;20045;-35
2022/09/02 05:16:13;;;;;;;1.80;0.30;;;14.10;90.00;;;;;;5040901;28;20541;-35
2022/09/02 05:18:39;;;;;;;2.50;0.35;;;14.10;90.10;;;;;;5035778;28;20116;-36
2022/09/02 05:21:05;;;;;;;0.82;0.50;;;14.10;90.10;;;;;;5034481;28;20509;-36
2022/09/02 05:23:31;;;;;;;2.75;0.55;;;14.10;90.10;;;;;;5030111;28;20898;-36
2022/09/02 05:25:56;;;;;;;0.80;0.50;;;14.10;90.10;;;;;;5033402;28;20084;-36
2022/09/02 05:28:22;;;;;;;2.15;0.60;;;14.10;90.10;;;;;;5038987;28;20037;-35
2022/09/02 05:30:48;;;;;;;0.98;0.50;;;14.10;90.10;;;;;;5036383;28;20053;-36
2022/09/02 05:33:13;;;;;;;1.58;0.60;;;14.20;90.10;;;;;;5037595;28;20045;-36
2022/09/02 05:35:41;;;;;;;0.80;0.55;;;14.20;90.20;;;;;;5037236;28;20036;-36
2022/09/02 05:38:07;;;;;;;1.27;0.57;;;14.20;90.20;;;;;;5036445;28;20534;-36
2022/09/02 05:40:34;;;;;;;1.33;0.50;;;14.20;90.10;;;;;;5035392;28;20033;-36
2022/09/02 05:43:00;;;;;;;5.55;0.52;;;14.20;90.20;;;;;;5039177;28;20083;-35
2022/09/02 05:45:26;;;;;;;2.25;0.70;;;14.20;90.30;;;;;;5035563;28;20061;-35
2022/09/02 05:47:51;;;;;;;1.00;0.60;;;14.30;90.30;;;;;;5037445;28;20068;-38
2022/09/02 05:50:17;;;;;;;2.05;0.63;;;14.30;90.30;;;;;;5037625;28;20045;-36
2022/09/02 05:52:44;;;;;;;1.77;0.50;;;14.40;90.20;;;;;;5042120;28;20044;-35
2022/09/02 05:55:09;;;;;;;1.45;0.50;;;14.40;90.20;;;;;;5038901;28;20033;-35
2022/09/02 05:57:35;;;;;;;2.03;0.75;;;14.50;90.10;;;;;;5032736;28;20503;-35
2022/09/02 06:00:04;;;;;;;1.90;0.70;;;14.60;90.10;;;;;;5038250;28;20037;-35
2022/09/02 06:02:30;;;;;;;2.17;0.90;;;14.60;90.10;;;;;;5037884;28;20071;-36
2022/09/02 06:04:56;;;;;;;1.73;0.50;;;14.60;89.80;;;;;;5040703;28;20115;-35
2022/09/02 06:07:24;;;;;;;2.30;0.70;;;14.70;89.80;;;;;;5036884;28;20049;-36
2022/09/02 06:09:50;;;;;;;2.72;0.65;;;14.80;89.90;;;;;;5043740;28;20096;-35
2022/09/02 06:12:19;;;;;;;8.20;1.23;;;14.80;89.70;;;;;;5044585;28;20092;-35
2022/09/02 06:14:46;;;;;;;2.00;0.50;;;14.90;89.50;;;;;;5038737;28;20040;-35
2022/09/02 06:17:12;;;;;;;1.75;0.68;;;15.00;89.40;;;;;;5038729;28;20033;-35
2022/09/02 06:19:38;;;;;;;1.85;0.80;;;15.00;89.00;;;;;;5040386;28;20426;-37
2022/09/02 06:22:04;;;;;;;2.45;0.77;;;15.10;88.90;;;;;;5040053;28;20036;-35
2022/09/02 06:24:30;;;;;;;1.52;0.70;;;15.20;88.60;;;;;;5039258;28;20083;-36
2022/09/02 06:26:58;;;;;;;1.90;0.60;;;15.20;88.50;;;;;;5039095;28;20564;-36
2022/09/02 06:29:25;;;;;;;1.73;0.88;;;15.30;88.40;;;;;;5038006;28;20041;-36
2022/09/02 06:31:51;;;;;;;4.00;0.60;;;15.30;88.10;;;;;;5037849;28;20114;-36
2022/09/02 06:34:22;;;;;;;1.33;0.70;;;15.30;88.00;;;;;;5035788;28;20122;-37
2022/09/02 06:36:49;;;;;;;1.70;0.60;;;15.40;88.00;;;;;;5037138;28;20037;-35
2022/09/02 06:39:19;;;;;;;3.25;0.80;;;15.40;88.10;;;;;;5038916;28;20083;-35
2022/09/02 06:41:47;;;;;;;2.08;0.52;;;15.50;87.90;;;;;;5040166;28;20045;-36
2022/09/02 06:44:14;;;;;;;1.70;0.68;;;15.50;87.70;;;;;;5035032;28;20076;-36
2022/09/02 06:46:46;;;;;;;2.28;0.77;;;15.60;87.80;;;;;;5042915;28;21063;-36
2022/09/02 06:49:15;;;;;;;2.47;0.50;;;15.60;87.50;;;;;;5038439;28;20045;-36
2022/09/02 06:51:44;;;;;;;3.47;0.68;;;15.70;87.20;;;;;;5039936;28;20057;-35
2022/09/02 06:54:13;;;;;;;2.33;0.80;;;15.90;87.10;;;;;;5040234;28;20063;-36
2022/09/02 06:56:39;;;;;;;3.90;0.90;;;15.90;86.50;;;;;;5036759;28;20051;-35
2022/09/02 06:59:05;;;;;;;3.50;1.05;;;16.00;86.10;;;;;;5040458;28;20029;-35
2022/09/02 07:01:32;;;;;;;3.78;0.90;;;16.00;85.90;;;;;;5042158;28;20044;-35
2022/09/02 07:06:46;;;;;;;2.00;0.70;;;16.20;85.80;;;;;;5035032;28;20049;-36
2022/09/02 07:09:17;;;;;;;2.03;0.60;;;16.30;85.20;;;;;;5041964;28;20049;-35
2022/09/02 07:11:46;;;;;;;1.80;0.60;;;16.40;84.80;;;;;;5040787;28;20037;-35
2022/09/02 07:14:18;;;;;;;1.38;0.90;;;16.50;84.60;;;;;;5037687;28;20033;-34
2022/09/02 07:16:50;;;;;;;4.97;0.80;;;16.60;84.20;;;;;;5048163;28;20514;-35
2022/09/02 07:19:17;;;;;;;2.88;0.80;;;16.60;84.70;;;;;;5038079;28;20034;-35
2022/09/02 07:21:42;;;;;;;4.60;1.13;;;16.70;83.80;;;;;;5038765;28;20094;-35
2022/09/02 07:24:10;;;;;;;1.88;1.00;;;16.70;83.70;;;;;;5042419;28;20037;-35
2022/09/02 07:26:36;;;;;;;2.47;0.70;;;16.70;83.70;;;;;;5037361;28;20041;-35
2022/09/02 07:29:03;;;;;;;3.42;0.68;;;16.70;83.90;;;;;;5040929;28;20110;-36
2022/09/02 07:31:29;;;;;;;2.17;0.70;;;16.80;83.90;;;;;;5042116;28;20048;-35
2022/09/02 07:33:57;;;;;;;2.05;0.60;;;16.70;83.80;;;;;;5042898;28;20037;-35
2022/09/02 07:36:24;;;;;;;29.70;1.25;;;16.80;83.80;;;;;;5040146;28;20490;-35
2022/09/02 07:38:50;;;;;;;4.35;0.90;;;16.90;83.90;;;;;;5045072;28;20557;-36
2022/09/02 07:41:16;;;;;;;2.45;0.80;;;16.90;83.80;;;;;;5037826;28;20040;-35
2022/09/02 07:43:42;;;;;;;1.30;0.55;;;17.00;83.40;;;;;;5034192;28;20045;-37
2022/09/02 07:46:08;;;;;;;3.35;0.75;;;17.20;83.30;;;;;;5042728;28;20042;-35
2022/09/02 07:48:33;;;;;;;2.30;0.93;;;17.30;82.80;;;;;;5042393;28;20044;-35
2022/09/02 07:51:00;;;;;;;1.13;0.73;;;17.40;81.90;;;;;;5042041;28;20043;-35
2022/09/02 07:53:27;;;;;;;1.38;0.60;;;17.50;81.30;;;;;;5038187;28;20041;-35
2022/09/02 07:55:53;;;;;;;1.20;0.50;;;17.50;80.90;;;;;;5040024;28;20076;-36
2022/09/02 07:58:21;;;;;;;5.55;0.70;;;17.60;80.90;;;;;;5038401;28;20095;-36
2022/09/02 08:00:47;;;;;;;1.17;0.70;;;17.60;81.00;;;;;;5037165;28;20041;-36
2022/09/02 08:03:14;;;;;;;2.97;0.82;;;17.60;81.10;;;;;;5037125;28;20067;-36
2022/09/02 08:05:40;;;;;;;1.65;0.50;;;17.70;80.70;;;;;;5038404;28;20030;-35
2022/09/02 08:08:07;;;;;;;1.20;0.60;;;17.70;80.30;;;;;;5038892;28;20068;-36
2022/09/02 08:10:34;;;;;;;1.15;0.60;;;17.70;80.10;;;;;;5042506;28;20051;-35
2022/09/02 08:13:01;;;;;;;2.97;0.70;;;17.90;79.70;;;;;;5043582;28;20112;-35
2022/09/02 08:15:28;;;;;;;1.88;0.63;;;18.00;79.10;;;;;;5037886;28;20044;-36
2022/09/02 08:17:55;;;;;;;2.20;0.65;;;18.20;78.60;;;;;;5039678;28;20150;-37
2022/09/02 08:20:21;;;;;;;1.90;0.60;;;18.30;77.60;;;;;;5041941;28;20105;-36
2022/09/02 08:22:47;;;;;;;4.57;0.90;;;18.50;77.00;;;;;;5041047;28;20681;-36
2022/09/02 08:25:13;;;;;;;2.00;0.70;;;18.60;76.60;;;;;;5037874;28;20056;-36
2022/09/02 08:27:39;;;;;;;3.50;0.80;;;18.80;76.10;;;;;;5039589;28;20054;-36
2022/09/02 08:30:08;;;;;;;1.95;0.73;;;19.00;75.60;;;;;;5041029;28;20415;-36
2022/09/02 08:32:35;;;;;;;1.02;0.60;;;19.10;75.00;;;;;;5043652;28;20110;-36
2022/09/02 08:35:01;;;;;;;2.05;0.75;;;19.30;74.00;;;;;;5043926;28;20037;-37
2022/09/02 08:37:32;;;;;;;3.20;0.82;;;19.40;73.50;;;;;;5042976;28;20131;-37
2022/09/02 08:39:58;;;;;;;4.72;0.80;;;19.60;73.60;;;;;;5037993;28;20699;-36
2022/09/02 08:42:34;;;;;;;2.35;0.70;;;19.70;72.30;;;;;;5038410;28;20044;-36
2022/09/02 08:45:16;;;;;;;2.80;0.50;;;19.80;69.60;;;;;;5036666;28;20418;-41
2022/09/02 08:47:46;;;;;;;3.40;0.60;;;19.90;68.00;;;;;;5034470;28;20068;-41
2022/09/02 08:50:15;;;;;;;2.30;0.50;;;20.00;67.70;;;;;;5034389;28;20081;-36
2022/09/02 08:53:02;;;;;;;1.17;0.57;;;20.10;67.50;;;;;;5035788;28;20098;-38
2022/09/02 08:55:35;;;;;;;2.70;0.60;;;20.20;65.60;;;;;;5038749;28;20556;-37
2022/09/02 08:58:01;;;;;;;2.90;0.98;;;20.40;64.30;;;;;;5040910;28;20034;-42
2022/09/02 09:00:34;;;;;;;1.35;0.52;;;20.50;64.30;;;;;;5034097;28;20040;-38
2022/09/02 09:03:33;;;;;;;0.95;0.43;;;20.70;64.20;;;;;;5042917;28;20235;-39
2022/09/02 09:06:25;;;;;;;1.17;0.60;;;20.90;64.30;;;;;;5044394;28;20045;-40
2022/09/02 09:09:04;;;;;;;3.05;0.52;;;21.00;61.70;;;;;;5035741;28;20128;-39
2022/09/02 09:11:45;;;;;;;2.30;0.90;;;21.10;61.50;;;;;;5037185;28;20073;-35
2022/09/02 09:14:20;;;;;;;2.53;0.98;;;21.20;58.80;;;;;;5037334;28;20041;-37
2022/09/02 09:16:58;;;;;;;2.15;0.60;;;21.30;57.50;;;;;;5042441;28;20087;-35
2022/09/02 09:19:39;;;;;;;5.55;1.00;;;21.40;55.60;;;;;;5036017;28;20175;-35
2022/09/02 09:22:05;;;;;;;3.35;0.68;;;21.50;54.40;;;;;;5038969;28;20048;-35
2022/09/02 09:24:45;;;;;;;3.55;0.70;;;21.60;53.40;;;;;;5036785;28;20041;-36
2022/09/02 09:27:18;;;;;;;1.50;0.60;;;21.70;52.60;;;;;;5037977;28;20048;-35
2022/09/02 09:29:44;;;;;;;2.10;0.50;;;21.80;53.20;;;;;;5039893;28;20037;-35
2022/09/02 09:32:26;;;;;;;2.15;0.60;;;21.90;52.80;;;;;;5035521;28;20521;-36
2022/09/02 09:34:52;;;;;;;3.42;1.00;;;22.00;51.50;;;;;;5037895;28;20076;-35
2022/09/02 09:37:40;;;;;;;1.13;0.50;;;22.20;51.90;;;;;;5035878;28;20053;-36
2022/09/02 09:40:21;;;;;;;1.70;0.65;;;22.40;51.20;;;;;;5042024;28;20079;-36
2022/09/02 09:43:12;;;;;;;1.90;0.40;;;22.50;50.10;;;;;;5038299;28;20041;-35
2022/09/02 09:45:40;;;;;;;1.40;0.55;;;22.60;49.20;;;;;;5042665;28;20761;-35
2022/09/02 09:48:32;;;;;;;1.92;0.50;;;22.70;48.60;;;;;;5041395;28;20063;-35
2022/09/02 09:50:58;;;;;;;3.37;0.60;;;22.80;48.40;;;;;;5046150;28;20041;-35
2022/09/02 09:53:28;;;;;;;1.15;0.50;;;23.00;48.30;;;;;;5045731;28;20123;-35
2022/09/02 09:55:56;;;;;;;3.75;0.50;;;23.10;47.30;;;;;;5039282;28;20052;-35
2022/09/02 09:58:30;;;;;;;3.33;0.40;;;23.20;46.80;;;;;;5036672;28;22009;-36
2022/09/02 10:00:59;;;;;;;2.05;0.50;;;23.30;45.90;;;;;;5040007;28;20037;-35
2022/09/02 10:03:27;;;;;;;3.25;0.63;;;23.40;45.60;;;;;;5040887;28;20071;-36
2022/09/02 10:06:15;;;;;;;1.85;0.40;;;23.50;45.00;;;;;;5044465;28;20422;-36
2022/09/02 10:08:54;;;;;;;1.48;0.50;;;23.60;44.30;;;;;;5038703;28;20099;-36
2022/09/02 10:11:23;;;;;;;3.35;0.50;;;23.70;43.70;;;;;;5041626;28;20734;-36
2022/09/02 10:13:49;;;;;;;1.40;0.60;;;23.90;43.30;;;;;;5042736;28;20526;-36
2022/09/02 10:16:36;;;;;;;1.52;0.40;;;24.00;42.90;;;;;;5041366;28;20033;-37
2022/09/02 10:19:17;;;;;;;0.90;0.30;;;24.20;42.50;;;;;;5045107;28;20037;-36
2022/09/02 10:22:46;;;;;;;4.30;0.60;;;24.20;41.00;;;;;;5042098;28;20087;-35
2022/09/02 10:25:30;;;;;;;2.15;0.50;;;24.30;40.10;;;;;;5022481;28;20293;-37
2022/09/02 10:28:10;;;;;;;3.25;0.90;;;24.40;40.20;;;;;;5028925;28;20518;-36
2022/09/02 10:30:58;;;;;;;2.58;0.40;;;24.50;40.20;;;;;;5033016;28;20049;-36
2022/09/02 10:33:59;;;;;;;0.73;0.40;;;24.70;39.30;;;;;;5024149;28;20579;-36
2022/09/02 10:36:53;;;;;;;1.48;0.60;;;24.70;39.20;;;;;;5038494;28;20041;-36
2022/09/02 10:39:27;;;;;;;1.38;0.50;;;24.80;39.20;;;;;;5033644;28;20456;-36
2022/09/02 10:42:00;;;;;;;4.57;0.40;;;24.90;39.50;;;;;;5041868;28;20228;-38
2022/09/02 10:44:31;;;;;;;1.23;0.50;;;25.10;39.20;;;;;;5037054;28;20530;-39
2022/09/02 10:47:27;;;;;;;1.80;0.40;;;25.10;38.60;;;;;;5041139;28;20037;-37
2022/09/02 10:50:12;;;;;;;0.93;0.40;;;25.10;37.50;;;;;;5039130;28;20045;-39
2022/09/02 10:53:14;;;;;;;2.60;0.50;;;25.20;37.90;;;;;;5038891;28;20154;-39
2022/09/02 10:55:53;;;;;;;1.48;0.63;;;25.40;37.60;;;;;;5039193;28;20044;-38
2022/09/02 10:58:42;;;;;;;1.92;0.47;;;25.50;36.80;;;;;;5037788;28;20049;-37
2022/09/02 11:01:16;;;;;;;3.63;0.50;;;25.50;37.10;;;;;;5035775;28;20047;-38
2022/09/02 11:04:01;;;;;;;3.33;0.63;;;25.60;37.20;;;;;;5041637;28;20491;-38
2022/09/02 11:06:30;;;;;;;1.30;0.60;;;25.50;36.30;;;;;;5036539;28;20122;-37
2022/09/02 11:09:27;;;;;;;1.90;0.50;;;25.50;36.40;;;;;;5043394;28;20042;-38
2022/09/02 11:12:06;;;;;;;0.77;0.50;;;25.50;36.30;;;;;;5037961;28;20107;-38
2022/09/02 11:14:34;;;;;;;1.52;0.60;;;25.50;36.40;;;;;;5038003;28;20499;-37
2022/09/02 11:17:08;;;;;;;2.63;0.60;;;25.40;36.00;;;;;;5036052;28;20045;-37
2022/09/02 11:19:48;;;;;;;1.50;0.60;;;25.40;36.30;;;;;;5035316;28;20041;-38
2022/09/02 11:22:37;;;;;;;1.63;0.70;;;25.40;35.90;;;;;;5041909;28;20049;-38
2022/09/02 11:25:39;;;;;;;1.80;0.50;;;25.40;35.60;;;;;;5046748;28;20045;-37
2022/09/02 11:28:11;;;;;;;3.38;0.60;;;25.40;35.50;;;;;;5030880;28;20064;-37
2022/09/02 11:30:48;;;;;;;3.08;0.65;;;25.50;35.90;;;;;;5040135;28;20045;-38
2022/09/02 11:33:29;;;;;;;2.80;0.70;;;25.60;35.80;;;;;;5037090;28;20037;-37
2022/09/02 11:35:57;;;;;;;3.45;0.70;;;25.70;35.70;;;;;;5033776;28;20486;-38
2022/09/02 11:38:52;;;;;;;2.00;0.75;;;25.80;35.40;;;;;;5037824;28;20041;-38
2022/09/02 11:41:54;;;;;;;3.05;0.70;;;25.80;34.50;;;;;;5038305;28;20045;-38
2022/09/02 11:44:52;;;;;;;1.98;0.60;;;25.90;34.50;;;;;;5040510;28;20688;-37
2022/09/02 11:47:36;;;;;;;2.63;1.13;;;25.90;34.50;;;;;;5036936;28;20474;-37
2022/09/02 11:50:23;;;;;;;3.25;0.60;;;26.10;34.80;;;;;;5032954;28;20483;-38
2022/09/02 11:53:23;;;;;;;0.98;0.57;;;26.30;34.70;;;;;;5036618;28;20045;-38
2022/09/02 11:56:07;;;;;;;1.98;0.52;;;26.50;34.50;;;;;;5039727;28;20073;-38
2022/09/02 11:58:51;;;;;;;1.60;0.50;;;26.60;33.60;;;;;;5042607;28;20048;-38
2022/09/02 12:01:38;;;;;;;1.80;0.50;;;26.70;33.50;;;;;;5039179;28;20036;-38
2022/09/02 12:04:13;;;;;;;0.70;0.40;;;26.70;33.70;;;;;;5034411;28;20037;-38
2022/09/02 12:07:01;;;;;;;1.33;0.50;;;26.80;33.50;;;;;;5040374;28;20398;-37
2022/09/02 12:09:48;;;;;;;1.92;0.60;;;27.00;33.50;;;;;;5027818;28;20088;-41
2022/09/02 12:12:35;;;;;;;1.55;0.50;;;27.10;33.40;;;;;;5039112;28;20514;-39
2022/09/02 12:15:10;;;;;;;1.83;0.50;;;27.20;32.80;;;;;;5038756;28;20033;-36
2022/09/02 12:17:48;;;;;;;1.42;0.50;;;27.30;33.00;;;;;;5038021;28;20042;-36
2022/09/02 12:20:36;;;;;;;3.70;0.60;;;27.40;32.80;;;;;;5035652;28;20072;-36
2022/09/02 12:23:02;;;;;;;0.77;0.55;;;27.50;31.90;;;;;;5036806;28;20519;-36
2022/09/02 12:25:36;;;;;;;14.98;1.70;;;27.60;32.40;;;;;;5046447;28;20056;-37
2022/09/02 12:28:29;;;;;;;2.50;0.60;;;27.70;32.30;;;;;;5041130;28;20056;-37
2022/09/02 12:31:00;;;;;;;5.10;0.80;;;27.90;31.70;;;;;;5033626;28;20053;-36
2022/09/02 12:33:33;;;;;;;5.25;0.90;;;28.00;31.80;;;;;;5045520;28;20044;-36
2022/09/02 12:35:59;;;;;;;6.55;1.20;;;28.10;31.30;;;;;;5037213;28;20076;-36
2022/09/02 12:38:41;;;;;;;1.83;0.98;;;28.10;31.40;;;;;;5040422;28;20044;-38
2022/09/02 12:41:12;;;;;;;1.95;0.80;;;28.30;31.20;;;;;;5043813;28;20024;-38
2022/09/02 12:44:11;;;;;;;1.40;0.80;;;28.60;30.90;;;;;;5036357;28;20581;-38
2022/09/02 12:46:43;;;;;;;1.25;0.70;;;28.80;30.20;;;;;;5035227;28;20068;-37
2022/09/02 12:49:17;;;;;;;1.20;0.80;;;28.90;30.40;;;;;;5034456;28;20090;-39
2022/09/02 12:51:56;;;;;;;1.13;0.82;;;29.00;30.20;;;;;;5035836;28;20047;-44
2022/09/02 12:54:42;;;;;;;1.10;0.70;;;29.10;29.80;;;;;;5033220;28;20056;-37
2022/09/02 12:57:09;;;;;;;1.50;0.60;;;29.30;29.60;;;;;;5038145;28;20094;-37
2022/09/02 12:59:37;;;;;;;3.83;0.70;;;29.50;29.30;;;;;;5038299;28;20176;-37
2022/09/02 13:02:03;;;;;;;2.05;0.60;;;29.70;28.70;;;;;;5037224;28;20043;-37
2022/09/02 13:04:44;;;;;;;2.22;0.70;;;29.80;28.60;;;;;;5037203;28;20045;-36
2022/09/02 13:07:34;;;;;;;1.33;0.60;;;30.10;28.20;;;;;;5033583;28;20041;-37
2022/09/02 13:10:21;;;;;;;3.40;0.60;;;30.40;28.00;;;;;;5031493;28;20033;-38
2022/09/02 13:13:05;;;;;;;1.55;0.63;;;31.00;27.70;;;;;;5038936;28;20170;-41